sensor_id;sensor_type;location;lat;lon;timestamp;P1;durP1;ratioP1;P2;durP2;ratioP2
29414;SDS011;20303;48.302;11.914;2023-05-14T00:01:41;28.20;;;17.02;;
29414;SDS011;20303;48.302;11.914;2023-05-14T00:11:42;23.83;;;15.43;;
29414;SDS011;20303;48.302;11.914;2023-05-14T00:21:43;20.08;;;12.80;;
29414;SDS011;20303;48.302;11.914;2023-05-14T00:31:46;19.00;;;12.05;;
29414;SDS011;20303;48.302;11.914;2023-05-14T00:41:47;15.27;;;10.35;;
29414;SDS011;20303;48.302;11.914;2023-05-14T00:51:48;14.48;;;9.27;;
29414;SDS011;20303;48.302;11.914;2023-05-14T01:01:49;11.38;;;8.30;;
29414;SDS011;20303;48.302;11.914;2023-05-14T01:22:17;70.70;;;10.52;;
29414;SDS011;20303;48.302;11.914;2023-05-14T01:32:18;70.40;;;10.35;;
29414;SDS011;20303;48.302;11.914;2023-05-14T01:42:22;38.00;;;8.93;;
29414;SDS011;20303;48.302;11.914;2023-05-14T01:52:23;29.73;;;7.55;;
29414;SDS011;20303;48.302;11.914;2023-05-14T02:02:24;23.05;;;7.15;;
29414;SDS011;20303;48.302;11.914;2023-05-14T02:12:25;17.08;;;6.07;;
29414;SDS011;20303;48.302;11.914;2023-05-14T02:22:26;12.63;;;5.97;;
29414;SDS011;20303;48.302;11.914;2023-05-14T02:32:27;13.85;;;5.68;;
29414;SDS011;20303;48.302;11.914;2023-05-14T02:42:28;18.35;;;5.82;;
29414;SDS011;20303;48.302;11.914;2023-05-14T02:52:29;9.60;;;5.35;;
29414;SDS011;20303;48.302;11.914;2023-05-14T03:02:30;8.63;;;4.47;;
29414;SDS011;20303;48.302;11.914;2023-05-14T03:12:31;8.18;;;4.70;;
29414;SDS011;20303;48.302;11.914;2023-05-14T03:22:32;7.25;;;4.60;;
29414;SDS011;20303;48.302;11.914;2023-05-14T03:32:33;8.75;;;4.70;;
29414;SDS011;20303;48.302;11.914;2023-05-14T03:42:34;7.95;;;4.50;;
29414;SDS011;20303;48.302;11.914;2023-05-14T03:52:35;6.88;;;4.80;;
29414;SDS011;20303;48.302;11.914;2023-05-14T04:02:36;6.75;;;4.28;;
29414;SDS011;20303;48.302;11.914;2023-05-14T04:12:37;5.72;;;4.38;;
29414;SDS011;20303;48.302;11.914;2023-05-14T04:22:38;10.82;;;4.15;;
29414;SDS011;20303;48.302;11.914;2023-05-14T04:32:39;5.07;;;3.70;;
29414;SDS011;20303;48.302;11.914;2023-05-14T04:42:40;6.35;;;4.05;;
29414;SDS011;20303;48.302;11.914;2023-05-14T04:52:41;5.57;;;3.55;;
29414;SDS011;20303;48.302;11.914;2023-05-14T05:02:42;4.32;;;3.70;;
29414;SDS011;20303;48.302;11.914;2023-05-14T05:12:43;7.18;;;3.70;;
29414;SDS011;20303;48.302;11.914;2023-05-14T05:22:44;7.75;;;3.83;;
29414;SDS011;20303;48.302;11.914;2023-05-14T05:32:45;5.45;;;3.85;;
29414;SDS011;20303;48.302;11.914;2023-05-14T05:42:46;4.32;;;3.35;;
29414;SDS011;20303;48.302;11.914;2023-05-14T05:52:47;5.28;;;3.75;;
29414;SDS011;20303;48.302;11.914;2023-05-14T06:02:48;4.18;;;3.60;;
29414;SDS011;20303;48.302;11.914;2023-05-14T06:12:49;4.78;;;3.58;;
29414;SDS011;20303;48.302;11.914;2023-05-14T06:22:50;5.63;;;3.70;;
29414;SDS011;20303;48.302;11.914;2023-05-14T06:32:51;4.43;;;3.75;;
29414;SDS011;20303;48.302;11.914;2023-05-14T06:42:52;5.03;;;4.00;;
29414;SDS011;20303;48.302;11.914;2023-05-14T06:52:53;5.75;;;3.88;;
29414;SDS011;20303;48.302;11.914;2023-05-14T07:02:54;6.60;;;5.82;;
29414;SDS011;20303;48.302;11.914;2023-05-14T07:12:55;7.07;;;4.60;;
29414;SDS011;20303;48.302;11.914;2023-05-14T07:22:56;7.97;;;4.30;;
29414;SDS011;20303;48.302;11.914;2023-05-14T07:32:57;7.47;;;4.90;;
29414;SDS011;20303;48.302;11.914;2023-05-14T07:42:58;8.18;;;4.63;;
29414;SDS011;20303;48.302;11.914;2023-05-14T07:52:59;5.45;;;4.50;;
29414;SDS011;20303;48.302;11.914;2023-05-14T08:03:00;6.40;;;4.95;;
29414;SDS011;20303;48.302;11.914;2023-05-14T08:13:01;7.65;;;4.20;;
29414;SDS011;20303;48.302;11.914;2023-05-14T08:23:03;5.03;;;3.90;;
29414;SDS011;20303;48.302;11.914;2023-05-14T08:33:04;7.38;;;4.35;;
29414;SDS011;20303;48.302;11.914;2023-05-14T08:43:05;13.20;;;4.55;;
29414;SDS011;20303;48.302;11.914;2023-05-14T08:53:06;25.45;;;5.90;;
29414;SDS011;20303;48.302;11.914;2023-05-14T09:03:07;35.70;;;9.18;;
29414;SDS011;20303;48.302;11.914;2023-05-14T09:13:08;31.17;;;8.50;;
29414;SDS011;20303;48.302;11.914;2023-05-14T09:23:09;35.63;;;8.88;;
29414;SDS011;20303;48.302;11.914;2023-05-14T09:33:10;19.67;;;7.60;;
29414;SDS011;20303;48.302;11.914;2023-05-14T09:43:11;16.75;;;8.25;;
29414;SDS011;20303;48.302;11.914;2023-05-14T09:53:13;26.75;;;5.57;;
29414;SDS011;20303;48.302;11.914;2023-05-14T10:03:14;15.32;;;4.47;;
29414;SDS011;20303;48.302;11.914;2023-05-14T10:13:16;37.72;;;5.95;;
29414;SDS011;20303;48.302;11.914;2023-05-14T10:23:19;12.77;;;4.43;;
29414;SDS011;20303;48.302;11.914;2023-05-14T10:33:20;17.17;;;4.90;;
29414;SDS011;20303;48.302;11.914;2023-05-14T10:43:21;12.23;;;4.40;;
29414;SDS011;20303;48.302;11.914;2023-05-14T10:53:31;8.30;;;4.00;;
29414;SDS011;20303;48.302;11.914;2023-05-14T11:03:40;7.13;;;3.80;;
29414;SDS011;20303;48.302;11.914;2023-05-14T11:13:43;6.50;;;3.80;;
29414;SDS011;20303;48.302;11.914;2023-05-14T11:23:47;5.80;;;3.67;;
29414;SDS011;20303;48.302;11.914;2023-05-14T11:33:48;7.05;;;3.30;;
29414;SDS011;20303;48.302;11.914;2023-05-14T11:43:51;4.30;;;3.30;;
29414;SDS011;20303;48.302;11.914;2023-05-14T11:53:52;6.43;;;3.40;;
29414;SDS011;20303;48.302;11.914;2023-05-14T12:03:53;4.40;;;3.40;;
29414;SDS011;20303;48.302;11.914;2023-05-14T12:13:55;5.35;;;3.45;;
29414;SDS011;20303;48.302;11.914;2023-05-14T12:23:59;6.07;;;3.45;;
29414;SDS011;20303;48.302;11.914;2023-05-14T12:34:00;4.18;;;3.53;;
29414;SDS011;20303;48.302;11.914;2023-05-14T12:44:03;3.47;;;3.15;;
29414;SDS011;20303;48.302;11.914;2023-05-14T12:54:04;4.25;;;3.30;;
29414;SDS011;20303;48.302;11.914;2023-05-14T13:04:05;5.68;;;3.28;;
29414;SDS011;20303;48.302;11.914;2023-05-14T13:14:07;4.57;;;3.50;;
29414;SDS011;20303;48.302;11.914;2023-05-14T13:24:08;5.15;;;3.45;;
29414;SDS011;20303;48.302;11.914;2023-05-14T13:34:09;4.50;;;3.38;;
29414;SDS011;20303;48.302;11.914;2023-05-14T13:44:12;4.30;;;3.17;;
29414;SDS011;20303;48.302;11.914;2023-05-14T13:54:13;4.20;;;3.22;;
29414;SDS011;20303;48.302;11.914;2023-05-14T14:04:14;3.55;;;3.00;;
29414;SDS011;20303;48.302;11.914;2023-05-14T14:14:15;3.50;;;3.20;;
29414;SDS011;20303;48.302;11.914;2023-05-14T14:24:16;3.20;;;2.90;;
29414;SDS011;20303;48.302;11.914;2023-05-14T14:34:17;3.28;;;2.97;;
29414;SDS011;20303;48.302;11.914;2023-05-14T14:44:19;3.38;;;3.00;;
29414;SDS011;20303;48.302;11.914;2023-05-14T14:54:20;3.60;;;2.80;;
29414;SDS011;20303;48.302;11.914;2023-05-14T15:04:21;3.42;;;2.80;;
29414;SDS011;20303;48.302;11.914;2023-05-14T15:14:22;3.13;;;2.72;;
29414;SDS011;20303;48.302;11.914;2023-05-14T15:24:23;3.63;;;2.83;;
29414;SDS011;20303;48.302;11.914;2023-05-14T15:34:25;2.83;;;2.20;;
29414;SDS011;20303;48.302;11.914;2023-05-14T15:44:26;4.57;;;2.55;;
29414;SDS011;20303;48.302;11.914;2023-05-14T15:54:27;5.32;;;2.20;;
29414;SDS011;20303;48.302;11.914;2023-05-14T16:04:28;6.93;;;5.03;;
29414;SDS011;20303;48.302;11.914;2023-05-14T16:14:29;19.10;;;9.45;;
29414;SDS011;20303;48.302;11.914;2023-05-14T16:24:32;15.68;;;10.30;;
29414;SDS011;20303;48.302;11.914;2023-05-14T16:34:33;18.48;;;11.13;;
29414;SDS011;20303;48.302;11.914;2023-05-14T16:44:34;20.30;;;11.27;;
29414;SDS011;20303;48.302;11.914;2023-05-14T16:54:35;18.58;;;10.82;;
29414;SDS011;20303;48.302;11.914;2023-05-14T17:04:36;18.77;;;10.70;;
29414;SDS011;20303;48.302;11.914;2023-05-14T17:14:40;16.13;;;9.45;;
29414;SDS011;20303;48.302;11.914;2023-05-14T17:24:41;15.98;;;9.85;;
29414;SDS011;20303;48.302;11.914;2023-05-14T17:34:42;15.90;;;9.05;;
29414;SDS011;20303;48.302;11.914;2023-05-14T17:44:43;15.05;;;8.75;;
29414;SDS011;20303;48.302;11.914;2023-05-14T17:54:44;13.35;;;8.13;;
29414;SDS011;20303;48.302;11.914;2023-05-14T18:04:45;11.68;;;7.40;;
29414;SDS011;20303;48.302;11.914;2023-05-14T18:14:46;9.45;;;7.00;;
29414;SDS011;20303;48.302;11.914;2023-05-14T18:24:48;11.13;;;6.70;;
29414;SDS011;20303;48.302;11.914;2023-05-14T18:34:49;10.77;;;6.70;;
29414;SDS011;20303;48.302;11.914;2023-05-14T18:44:50;10.63;;;6.00;;
29414;SDS011;20303;48.302;11.914;2023-05-14T18:54:51;11.52;;;6.22;;
29414;SDS011;20303;48.302;11.914;2023-05-14T19:04:53;8.70;;;5.50;;
29414;SDS011;20303;48.302;11.914;2023-05-14T19:14:54;10.48;;;5.90;;
29414;SDS011;20303;48.302;11.914;2023-05-14T19:24:55;7.80;;;5.05;;
29414;SDS011;20303;48.302;11.914;2023-05-14T19:34:56;8.48;;;5.20;;
29414;SDS011;20303;48.302;11.914;2023-05-14T19:44:57;6.38;;;4.90;;
29414;SDS011;20303;48.302;11.914;2023-05-14T19:54:58;7.35;;;4.80;;
29414;SDS011;20303;48.302;11.914;2023-05-14T20:04:59;7.15;;;4.90;;
29414;SDS011;20303;48.302;11.914;2023-05-14T20:15:00;5.78;;;4.25;;
29414;SDS011;20303;48.302;11.914;2023-05-14T20:25:01;12.13;;;4.63;;
29414;SDS011;20303;48.302;11.914;2023-05-14T20:35:02;9.43;;;4.18;;
29414;SDS011;20303;48.302;11.914;2023-05-14T20:45:04;10.73;;;4.15;;
29414;SDS011;20303;48.302;11.914;2023-05-14T20:55:06;10.70;;;5.05;;
29414;SDS011;20303;48.302;11.914;2023-05-14T21:05:07;98.82;;;55.22;;
29414;SDS011;20303;48.302;11.914;2023-05-14T21:15:09;221.90;;;129.95;;
29414;SDS011;20303;48.302;11.914;2023-05-14T21:25:10;295.65;;;178.23;;
29414;SDS011;20303;48.302;11.914;2023-05-14T21:35:11;343.70;;;218.93;;
29414;SDS011;20303;48.302;11.914;2023-05-14T21:45:12;359.80;;;228.98;;
29414;SDS011;20303;48.302;11.914;2023-05-14T21:55:13;364.40;;;233.55;;
29414;SDS011;20303;48.302;11.914;2023-05-14T22:05:14;360.65;;;223.75;;
29414;SDS011;20303;48.302;11.914;2023-05-14T22:15:15;325.17;;;204.95;;
29414;SDS011;20303;48.302;11.914;2023-05-14T22:25:16;284.38;;;174.43;;
29414;SDS011;20303;48.302;11.914;2023-05-14T22:35:17;245.13;;;148.48;;
29414;SDS011;20303;48.302;11.914;2023-05-14T22:45:18;420.42;;;289.80;;
29414;SDS011;20303;48.302;11.914;2023-05-14T22:55:19;250.43;;;160.00;;
29414;SDS011;20303;48.302;11.914;2023-05-14T23:05:20;203.27;;;129.00;;
29414;SDS011;20303;48.302;11.914;2023-05-14T23:15:21;189.48;;;122.38;;
29414;SDS011;20303;48.302;11.914;2023-05-14T23:25:23;173.98;;;113.88;;
29414;SDS011;20303;48.302;11.914;2023-05-14T23:35:24;160.68;;;102.93;;
29414;SDS011;20303;48.302;11.914;2023-05-14T23:45:28;152.85;;;100.80;;
29414;SDS011;20303;48.302;11.914;2023-05-14T23:55:29;124.25;;;80.40;;
